Date,TemperatureHighF,TemperatureAvgF,TemperatureLowF,DewpointHighF,DewpointAvgF,DewpointLowF,HumidityHigh,HumidityAvg,HumidityLow,PressureMaxIn,PressureMinIn,WindSpeedMaxMPH,WindSpeedAvgMPH,GustSpeedMaxMPH,PrecipitationSumIn
2013-1-1,34.9,26.5,19.2,24.6,16.4,11.8,76,65,48,0.00,40.00,15,8,29,0.00
2013-1-2,36.2,25.7,14.6,15.4,11.9,6.1,68,56,38,0.00,40.00,11,6,17,0.00
2013-1-3,35.8,24.6,11.5,11.9,8.0,4.2,72,50,35,0.00,40.00,17,10,28,0.00
2013-1-4,41.8,30.6,21.7,15.7,10.9,7.1,61,44,31,0.00,40.00,13,7,22,0.00
2013-1-5,41.0,27.7,18.7,18.8,14.2,10.2,71,57,39,0.00,40.00,13,4,22,0.00
2013-1-6,41.6,32.2,18.5,16.2,14.1,11.4,74,48,33,0.00,40.00,14,6,24,0.00
2013-1-7,44.2,33.5,23.7,21.8,18.7,14.4,71,55,39,0.00,40.00,8,4,13,0.00
2013-1-8,49.1,39.7,30.3,24.2,19.8,12.5,61,45,24,0.00,40.00,20,6,39,0.00
2013-1-9,57.5,45.3,28.0,25.9,22.9,18.4,66,42,25,0.00,40.00,13,5,20,0.00
2013-1-10,51.2,33.1,19.5,29.1,22.3,12.4,83,65,36,0.00,40.00,20,8,29,0.00
2013-1-11,19.6,12.2,8.8,14.0,9.2,6.5,92,87,66,0.00,40.00,14,6,22,0.00
2013-1-12,17.4,10.4,3.1,9.3,6.0,0.6,91,83,64,0.00,40.00,13,4,19,0.00
2013-1-13,19.4,11.8,6.0,8.5,4.2,1.5,82,71,59,0.00,40.00,13,7,20,0.00
2013-1-14,19.0,14.0,8.0,7.7,3.4,0.5,72,62,52,0.00,40.00,16,10,26,0.00
2013-1-15,30.1,25.1,18.7,18.5,15.3,7.7,78,66,60,0.00,40.00,19,11,31,0.00
2013-1-16,41.3,32.4,27.1,23.4,18.3,15.4,62,56,43,0.00,40.00,16,8,25,0.00
2013-1-17,42.4,33.9,24.9,22.1,18.1,15.3,66,52,42,0.00,40.00,18,10,28,0.00
2013-1-18,53.5,41.4,32.7,22.9,19.4,17.1,53,41,25,0.00,40.00,16,7,24,0.00
2013-1-19,40.2,34.2,24.9,26.8,21.9,16.4,87,61,40,0.00,40.00,12,4,16,0.00
2013-1-20,37.7,23.4,16.1,21.0,16.0,10.5,84,73,47,0.00,40.00,21,8,32,0.00
2013-1-21,31.2,20.4,12.5,18.5,13.4,8.2,84,74,58,0.00,40.00,13,4,18,0.00
2013-1-22,47.5,31.3,16.7,22.6,16.9,12.7,85,58,32,0.00,40.00,10,5,16,0.00
2013-1-23,30.4,22.8,17.1,18.9,15.3,12.1,80,72,60,0.00,40.00,13,6,18,0.00
2013-1-24,54.9,37.7,20.1,27.7,21.3,15.7,83,54,32,0.00,40.00,17,4,36,0.00
2013-1-25,51.9,35.6,22.3,29.6,24.0,18.3,85,64,40,0.00,40.00,9,3,14,0.00
2013-1-26,60.2,43.6,33.6,29.5,27.3,25.8,72,54,31,0.00,40.00,9,3,14,0.00
2013-1-27,35.6,32.5,29.5,33.7,29.4,25.2,98,88,71,0.00,40.00,6,1,12,0.00
2013-1-28,40.1,30.9,21.4,28.5,21.0,9.8,94,69,29,0.00,40.00,14,4,27,0.00
2013-1-29,29.5,21.4,6.5,20.0,11.6,1.2,79,65,49,0.00,40.00,18,8,26,0.00
2013-1-30,31.8,23.7,9.5,29.5,18.8,3.0,98,82,63,0.00,40.00,14,6,24,0.00
2013-1-31,29.9,15.0,3.1,23.7,11.2,0.8,93,85,74,0.00,40.00,15,6,21,0.00